Terminal Aerodrome Forecast
Issued by NWS Newport/Morehead City, NC

Home | Current Version | Previous Version | Text Only | Print | Product List | Glossary Off
Versions: 1 2 3 4 5 6 7 8 9 10 11 12 13 14 15 16 17 18 19 20 21 22 23 24

000
FTUS42 KMHX 022320
TAFEWN
TAF
KEWN 022320Z 0300/0324 VRB03KT P6SM VCTS BKN060CB
     FM031000 00000KT 4SM BR VCSH SCT050
     FM031300 31005KT P6SM FEW050=

USA.gov is the U.S. government's official web portal to all federal, state and local government web resources and services.